sensor_id;sensor_type;location;lat;lon;timestamp;temperature;humidity
51615;DHT22;37695;52.960;6.188;2022-12-08T00:02:17;3.40;99.90
51615;DHT22;37695;52.960;6.188;2022-12-08T00:04:43;3.40;99.90
51615;DHT22;37695;52.960;6.188;2022-12-08T00:07:27;3.40;99.90
51615;DHT22;37695;52.960;6.188;2022-12-08T00:10:11;3.40;99.90
51615;DHT22;37695;52.960;6.188;2022-12-08T00:12:37;3.40;99.90
51615;DHT22;37695;52.960;6.188;2022-12-08T00:15:03;3.30;99.90
51615;DHT22;37695;52.960;6.188;2022-12-08T00:17:28;3.30;99.90
51615;DHT22;37695;52.960;6.188;2022-12-08T00:19:54;3.30;99.90
51615;DHT22;37695;52.960;6.188;2022-12-08T00:22:19;3.30;99.90
51615;DHT22;37695;52.960;6.188;2022-12-08T00:24:45;3.30;99.90
51615;DHT22;37695;52.960;6.188;2022-12-08T00:27:13;3.20;99.90
51615;DHT22;37695;52.960;6.188;2022-12-08T00:29:38;3.20;99.90
51615;DHT22;37695;52.960;6.188;2022-12-08T00:32:05;3.20;99.90
51615;DHT22;37695;52.960;6.188;2022-12-08T00:34:31;3.20;99.90
51615;DHT22;37695;52.960;6.188;2022-12-08T00:36:57;3.10;99.90
51615;DHT22;37695;52.960;6.188;2022-12-08T00:39:22;3.10;99.90
51615;DHT22;37695;52.960;6.188;2022-12-08T00:41:48;3.20;99.90
51615;DHT22;37695;52.960;6.188;2022-12-08T00:44:32;3.10;99.90
51615;DHT22;37695;52.960;6.188;2022-12-08T00:46:58;3.20;99.90
51615;DHT22;37695;52.960;6.188;2022-12-08T00:49:23;3.30;99.90
51615;DHT22;37695;52.960;6.188;2022-12-08T00:51:49;3.30;99.90
51615;DHT22;37695;52.960;6.188;2022-12-08T00:54:15;3.30;99.90
51615;DHT22;37695;52.960;6.188;2022-12-08T00:56:41;3.30;99.90
51615;DHT22;37695;52.960;6.188;2022-12-08T00:59:06;3.40;99.90
51615;DHT22;37695;52.960;6.188;2022-12-08T01:01:33;3.40;99.90
51615;DHT22;37695;52.960;6.188;2022-12-08T01:04:06;3.40;99.90
51615;DHT22;37695;52.960;6.188;2022-12-08T01:06:34;3.40;99.90
51615;DHT22;37695;52.960;6.188;2022-12-08T01:09:02;3.30;99.90
51615;DHT22;37695;52.960;6.188;2022-12-08T01:11:27;3.30;99.90
51615;DHT22;37695;52.960;6.188;2022-12-08T01:13:53;3.30;99.90
51615;DHT22;37695;52.960;6.188;2022-12-08T01:16:24;3.30;99.90
51615;DHT22;37695;52.960;6.188;2022-12-08T01:18:50;3.30;99.90
51615;DHT22;37695;52.960;6.188;2022-12-08T01:21:16;3.30;99.90
51615;DHT22;37695;52.960;6.188;2022-12-08T01:23:42;3.30;99.90
51615;DHT22;37695;52.960;6.188;2022-12-08T01:26:10;3.30;99.90
51615;DHT22;37695;52.960;6.188;2022-12-08T01:28:36;3.30;99.90
51615;DHT22;37695;52.960;6.188;2022-12-08T01:31:01;3.40;99.90
51615;DHT22;37695;52.960;6.188;2022-12-08T01:33:27;3.40;99.90
51615;DHT22;37695;52.960;6.188;2022-12-08T01:35:53;3.40;99.90
51615;DHT22;37695;52.960;6.188;2022-12-08T01:38:21;3.40;99.90
51615;DHT22;37695;52.960;6.188;2022-12-08T01:40:47;3.40;99.90
51615;DHT22;37695;52.960;6.188;2022-12-08T01:43:18;3.40;99.90
51615;DHT22;37695;52.960;6.188;2022-12-08T01:45:44;3.40;99.90
51615;DHT22;37695;52.960;6.188;2022-12-08T01:48:15;3.40;99.90
51615;DHT22;37695;52.960;6.188;2022-12-08T01:50:44;3.40;99.90
51615;DHT22;37695;52.960;6.188;2022-12-08T01:53:17;3.40;99.90
51615;DHT22;37695;52.960;6.188;2022-12-08T01:55:49;3.30;99.90
51615;DHT22;37695;52.960;6.188;2022-12-08T01:58:24;3.30;99.90
51615;DHT22;37695;52.960;6.188;2022-12-08T02:00:51;3.30;99.90
51615;DHT22;37695;52.960;6.188;2022-12-08T02:03:25;3.20;99.90
51615;DHT22;37695;52.960;6.188;2022-12-08T02:05:51;3.30;99.90
51615;DHT22;37695;52.960;6.188;2022-12-08T02:08:18;3.20;99.90
51615;DHT22;37695;52.960;6.188;2022-12-08T02:10:49;3.20;99.90
51615;DHT22;37695;52.960;6.188;2022-12-08T02:13:17;3.20;99.90
51615;DHT22;37695;52.960;6.188;2022-12-08T02:18:52;3.10;99.90
51615;DHT22;37695;52.960;6.188;2022-12-08T02:24:21;2.10;99.90
51615;DHT22;37695;52.960;6.188;2022-12-08T02:30:02;3.20;99.90
51615;DHT22;37695;52.960;6.188;2022-12-08T02:40:49;3.20;99.90
51615;DHT22;37695;52.960;6.188;2022-12-08T02:43:26;3.30;99.90
51615;DHT22;37695;52.960;6.188;2022-12-08T02:46:01;3.30;99.90
51615;DHT22;37695;52.960;6.188;2022-12-08T02:48:29;3.30;99.90
51615;DHT22;37695;52.960;6.188;2022-12-08T02:50:55;3.20;99.90
51615;DHT22;37695;52.960;6.188;2022-12-08T02:53:20;3.10;99.90
51615;DHT22;37695;52.960;6.188;2022-12-08T02:55:59;3.10;99.90
51615;DHT22;37695;52.960;6.188;2022-12-08T03:06:41;3.10;99.90
51615;DHT22;37695;52.960;6.188;2022-12-08T03:09:16;3.10;99.90
51615;DHT22;37695;52.960;6.188;2022-12-08T03:11:55;3.10;99.90
51615;DHT22;37695;52.960;6.188;2022-12-08T03:14:24;3.10;99.90
51615;DHT22;37695;52.960;6.188;2022-12-08T03:16:52;3.10;99.90
51615;DHT22;37695;52.960;6.188;2022-12-08T03:19:30;3.10;99.90
51615;DHT22;37695;52.960;6.188;2022-12-08T03:21:59;3.10;99.90
51615;DHT22;37695;52.960;6.188;2022-12-08T03:24:38;3.00;99.90
51615;DHT22;37695;52.960;6.188;2022-12-08T03:27:19;3.00;99.90
51615;DHT22;37695;52.960;6.188;2022-12-08T03:29:46;3.00;99.90
51615;DHT22;37695;52.960;6.188;2022-12-08T03:32:15;3.00;99.90
51615;DHT22;37695;52.960;6.188;2022-12-08T03:34:46;3.00;99.90
51615;DHT22;37695;52.960;6.188;2022-12-08T03:37:12;3.00;99.90
51615;DHT22;37695;52.960;6.188;2022-12-08T03:39:38;3.00;99.90
51615;DHT22;37695;52.960;6.188;2022-12-08T03:42:04;2.90;99.90
51615;DHT22;37695;52.960;6.188;2022-12-08T03:44:30;3.40;99.90
51615;DHT22;37695;52.960;6.188;2022-12-08T03:46:55;2.90;99.90
51615;DHT22;37695;52.960;6.188;2022-12-08T03:49:21;2.90;99.90
51615;DHT22;37695;52.960;6.188;2022-12-08T03:51:46;2.90;99.90
51615;DHT22;37695;52.960;6.188;2022-12-08T03:54:12;2.80;99.90
51615;DHT22;37695;52.960;6.188;2022-12-08T03:56:38;2.80;99.90
51615;DHT22;37695;52.960;6.188;2022-12-08T03:59:05;2.80;99.90
51615;DHT22;37695;52.960;6.188;2022-12-08T04:01:30;2.90;99.90
51615;DHT22;37695;52.960;6.188;2022-12-08T04:03:56;2.80;99.90
51615;DHT22;37695;52.960;6.188;2022-12-08T04:06:22;2.70;99.90
51615;DHT22;37695;52.960;6.188;2022-12-08T04:08:48;2.70;99.90
51615;DHT22;37695;52.960;6.188;2022-12-08T04:11:14;2.80;99.90
51615;DHT22;37695;52.960;6.188;2022-12-08T04:13:41;2.70;99.90
51615;DHT22;37695;52.960;6.188;2022-12-08T04:16:07;2.70;99.90
51615;DHT22;37695;52.960;6.188;2022-12-08T04:18:34;3.20;99.90
51615;DHT22;37695;52.960;6.188;2022-12-08T04:21:00;2.90;99.90
51615;DHT22;37695;52.960;6.188;2022-12-08T04:23:26;2.80;99.90
51615;DHT22;37695;52.960;6.188;2022-12-08T04:25:52;2.70;99.90
51615;DHT22;37695;52.960;6.188;2022-12-08T04:28:18;2.70;99.90
51615;DHT22;37695;52.960;6.188;2022-12-08T04:30:44;2.90;99.90
51615;DHT22;37695;52.960;6.188;2022-12-08T04:33:09;2.60;99.90
51615;DHT22;37695;52.960;6.188;2022-12-08T04:35:35;2.70;99.90
51615;DHT22;37695;52.960;6.188;2022-12-08T04:38:01;2.60;99.90
51615;DHT22;37695;52.960;6.188;2022-12-08T04:40:26;2.80;99.90
51615;DHT22;37695;52.960;6.188;2022-12-08T04:42:52;2.90;99.90
51615;DHT22;37695;52.960;6.188;2022-12-08T04:45:18;2.70;99.90
51615;DHT22;37695;52.960;6.188;2022-12-08T04:47:43;2.70;99.90
51615;DHT22;37695;52.960;6.188;2022-12-08T04:50:09;2.80;99.90
51615;DHT22;37695;52.960;6.188;2022-12-08T04:52:35;2.60;99.90
51615;DHT22;37695;52.960;6.188;2022-12-08T04:55:00;2.60;99.90
51615;DHT22;37695;52.960;6.188;2022-12-08T04:57:26;3.90;99.90
51615;DHT22;37695;52.960;6.188;2022-12-08T04:59:52;2.50;99.90
51615;DHT22;37695;52.960;6.188;2022-12-08T05:02:17;2.70;99.90
51615;DHT22;37695;52.960;6.188;2022-12-08T05:04:43;2.60;99.90
51615;DHT22;37695;52.960;6.188;2022-12-08T05:07:09;2.70;99.90
51615;DHT22;37695;52.960;6.188;2022-12-08T05:09:34;2.40;99.90
51615;DHT22;37695;52.960;6.188;2022-12-08T05:12:00;2.40;99.90
51615;DHT22;37695;52.960;6.188;2022-12-08T05:14:25;2.40;99.90
51615;DHT22;37695;52.960;6.188;2022-12-08T05:16:51;2.50;99.90
51615;DHT22;37695;52.960;6.188;2022-12-08T05:19:17;2.50;99.90
51615;DHT22;37695;52.960;6.188;2022-12-08T05:21:43;2.60;99.90
51615;DHT22;37695;52.960;6.188;2022-12-08T05:24:09;2.60;99.90
51615;DHT22;37695;52.960;6.188;2022-12-08T05:26:34;2.50;99.90
51615;DHT22;37695;52.960;6.188;2022-12-08T05:29:00;1.20;99.90
51615;DHT22;37695;52.960;6.188;2022-12-08T05:31:26;2.60;99.90
51615;DHT22;37695;52.960;6.188;2022-12-08T05:33:51;2.60;99.90
51615;DHT22;37695;52.960;6.188;2022-12-08T05:36:17;2.70;99.90
51615;DHT22;37695;52.960;6.188;2022-12-08T05:38:43;2.60;99.90
51615;DHT22;37695;52.960;6.188;2022-12-08T05:41:13;2.70;99.90
51615;DHT22;37695;52.960;6.188;2022-12-08T05:43:38;2.60;99.90
51615;DHT22;37695;52.960;6.188;2022-12-08T05:46:04;2.60;99.90
51615;DHT22;37695;52.960;6.188;2022-12-08T05:48:30;2.50;99.90
51615;DHT22;37695;52.960;6.188;2022-12-08T05:50:56;2.60;99.90
51615;DHT22;37695;52.960;6.188;2022-12-08T05:53:22;2.40;99.90
51615;DHT22;37695;52.960;6.188;2022-12-08T05:55:47;2.40;99.90
51615;DHT22;37695;52.960;6.188;2022-12-08T05:58:15;2.50;99.90
51615;DHT22;37695;52.960;6.188;2022-12-08T06:00:41;2.60;99.90
51615;DHT22;37695;52.960;6.188;2022-12-08T06:03:07;2.30;99.90
51615;DHT22;37695;52.960;6.188;2022-12-08T06:05:34;2.40;99.90
51615;DHT22;37695;52.960;6.188;2022-12-08T06:07:59;2.50;99.90
51615;DHT22;37695;52.960;6.188;2022-12-08T06:10:25;2.50;99.90
51615;DHT22;37695;52.960;6.188;2022-12-08T06:12:51;2.20;99.90
51615;DHT22;37695;52.960;6.188;2022-12-08T06:15:16;2.50;99.90
51615;DHT22;37695;52.960;6.188;2022-12-08T06:17:42;2.20;99.90
51615;DHT22;37695;52.960;6.188;2022-12-08T06:20:08;2.20;99.90
51615;DHT22;37695;52.960;6.188;2022-12-08T06:22:33;2.20;99.90
51615;DHT22;37695;52.960;6.188;2022-12-08T06:24:59;2.30;99.90
51615;DHT22;37695;52.960;6.188;2022-12-08T06:27:25;2.40;99.90
51615;DHT22;37695;52.960;6.188;2022-12-08T06:29:50;2.60;99.90
51615;DHT22;37695;52.960;6.188;2022-12-08T06:32:16;2.50;99.90
51615;DHT22;37695;52.960;6.188;2022-12-08T06:34:41;2.50;99.90
51615;DHT22;37695;52.960;6.188;2022-12-08T06:37:07;2.40;99.90
51615;DHT22;37695;52.960;6.188;2022-12-08T06:39:32;2.40;99.90
51615;DHT22;37695;52.960;6.188;2022-12-08T06:41:58;2.40;99.90
51615;DHT22;37695;52.960;6.188;2022-12-08T06:44:42;2.40;99.90
51615;DHT22;37695;52.960;6.188;2022-12-08T06:47:07;2.40;99.90
51615;DHT22;37695;52.960;6.188;2022-12-08T06:49:33;2.50;99.90
51615;DHT22;37695;52.960;6.188;2022-12-08T06:51:58;2.20;99.90
51615;DHT22;37695;52.960;6.188;2022-12-08T06:54:24;2.20;99.90
51615;DHT22;37695;52.960;6.188;2022-12-08T06:56:50;2.10;99.90
51615;DHT22;37695;52.960;6.188;2022-12-08T06:59:15;2.10;99.90
51615;DHT22;37695;52.960;6.188;2022-12-08T07:01:44;2.20;99.90
51615;DHT22;37695;52.960;6.188;2022-12-08T07:04:09;2.20;99.90
51615;DHT22;37695;52.960;6.188;2022-12-08T07:06:35;2.40;99.90
51615;DHT22;37695;52.960;6.188;2022-12-08T07:09:00;2.40;99.90
51615;DHT22;37695;52.960;6.188;2022-12-08T07:11:26;2.20;99.90
51615;DHT22;37695;52.960;6.188;2022-12-08T07:13:51;2.20;99.90
51615;DHT22;37695;52.960;6.188;2022-12-08T07:16:17;2.10;99.90
51615;DHT22;37695;52.960;6.188;2022-12-08T07:18:42;2.20;99.90
51615;DHT22;37695;52.960;6.188;2022-12-08T07:21:13;2.10;99.90
51615;DHT22;37695;52.960;6.188;2022-12-08T07:23:44;2.30;99.90
51615;DHT22;37695;52.960;6.188;2022-12-08T07:26:11;2.10;99.90
51615;DHT22;37695;52.960;6.188;2022-12-08T07:28:39;2.10;99.90
51615;DHT22;37695;52.960;6.188;2022-12-08T07:31:05;2.00;99.90
51615;DHT22;37695;52.960;6.188;2022-12-08T07:33:32;2.20;99.90
51615;DHT22;37695;52.960;6.188;2022-12-08T07:36:00;1.90;99.90
51615;DHT22;37695;52.960;6.188;2022-12-08T07:38:27;1.90;99.90
51615;DHT22;37695;52.960;6.188;2022-12-08T07:40:53;2.20;99.90
51615;DHT22;37695;52.960;6.188;2022-12-08T07:43:19;2.00;99.90
51615;DHT22;37695;52.960;6.188;2022-12-08T07:45:45;1.80;99.90
51615;DHT22;37695;52.960;6.188;2022-12-08T07:48:10;1.80;99.90
51615;DHT22;37695;52.960;6.188;2022-12-08T07:50:36;2.00;99.90
51615;DHT22;37695;52.960;6.188;2022-12-08T07:53:02;1.70;99.90
51615;DHT22;37695;52.960;6.188;2022-12-08T07:55:28;1.70;99.90
51615;DHT22;37695;52.960;6.188;2022-12-08T07:57:53;1.70;99.90
51615;DHT22;37695;52.960;6.188;2022-12-08T08:00:20;1.70;99.90
51615;DHT22;37695;52.960;6.188;2022-12-08T08:02:45;1.70;99.90
51615;DHT22;37695;52.960;6.188;2022-12-08T08:05:11;1.70;99.90
51615;DHT22;37695;52.960;6.188;2022-12-08T08:07:38;1.70;99.90
51615;DHT22;37695;52.960;6.188;2022-12-08T08:10:06;1.80;99.90
51615;DHT22;37695;52.960;6.188;2022-12-08T08:12:32;1.90;99.90
51615;DHT22;37695;52.960;6.188;2022-12-08T08:14:58;2.20;99.90
51615;DHT22;37695;52.960;6.188;2022-12-08T08:17:24;2.00;99.90
51615;DHT22;37695;52.960;6.188;2022-12-08T08:19:49;2.00;99.90
51615;DHT22;37695;52.960;6.188;2022-12-08T08:22:15;2.30;99.90
51615;DHT22;37695;52.960;6.188;2022-12-08T08:24:40;2.30;99.90
51615;DHT22;37695;52.960;6.188;2022-12-08T08:27:06;2.20;99.90
51615;DHT22;37695;52.960;6.188;2022-12-08T08:29:31;2.00;99.90
51615;DHT22;37695;52.960;6.188;2022-12-08T08:31:57;2.10;99.90
51615;DHT22;37695;52.960;6.188;2022-12-08T08:34:23;2.00;99.90
51615;DHT22;37695;52.960;6.188;2022-12-08T08:36:48;2.10;99.90
51615;DHT22;37695;52.960;6.188;2022-12-08T08:39:14;2.00;99.90
51615;DHT22;37695;52.960;6.188;2022-12-08T08:41:39;2.00;99.90
51615;DHT22;37695;52.960;6.188;2022-12-08T08:44:05;2.90;99.90
51615;DHT22;37695;52.960;6.188;2022-12-08T08:46:31;2.30;99.90
51615;DHT22;37695;52.960;6.188;2022-12-08T08:48:57;2.30;99.90
51615;DHT22;37695;52.960;6.188;2022-12-08T08:51:23;2.00;99.90
51615;DHT22;37695;52.960;6.188;2022-12-08T08:53:48;2.00;99.90
51615;DHT22;37695;52.960;6.188;2022-12-08T08:56:17;2.00;99.90
51615;DHT22;37695;52.960;6.188;2022-12-08T08:58:45;2.10;99.90
51615;DHT22;37695;52.960;6.188;2022-12-08T09:01:16;2.10;99.90
51615;DHT22;37695;52.960;6.188;2022-12-08T09:03:42;2.10;99.90
51615;DHT22;37695;52.960;6.188;2022-12-08T09:06:07;2.10;99.90
51615;DHT22;37695;52.960;6.188;2022-12-08T09:08:33;2.10;99.90
51615;DHT22;37695;52.960;6.188;2022-12-08T09:10:58;2.00;99.90
51615;DHT22;37695;52.960;6.188;2022-12-08T09:13:24;2.10;99.90
51615;DHT22;37695;52.960;6.188;2022-12-08T09:15:50;2.00;99.90
51615;DHT22;37695;52.960;6.188;2022-12-08T09:18:15;2.00;99.90
51615;DHT22;37695;52.960;6.188;2022-12-08T09:20:41;2.00;99.90
51615;DHT22;37695;52.960;6.188;2022-12-08T09:23:07;2.00;99.90
51615;DHT22;37695;52.960;6.188;2022-12-08T09:25:32;2.20;99.90
51615;DHT22;37695;52.960;6.188;2022-12-08T09:27:58;2.10;99.90
51615;DHT22;37695;52.960;6.188;2022-12-08T09:30:23;2.20;99.90
51615;DHT22;37695;52.960;6.188;2022-12-08T09:32:49;2.20;99.90
51615;DHT22;37695;52.960;6.188;2022-12-08T09:35:14;2.30;99.90
51615;DHT22;37695;52.960;6.188;2022-12-08T09:37:40;2.20;99.90
51615;DHT22;37695;52.960;6.188;2022-12-08T09:40:06;2.40;99.90
51615;DHT22;37695;52.960;6.188;2022-12-08T09:45:29;2.30;99.90
51615;DHT22;37695;52.960;6.188;2022-12-08T09:47:58;2.40;99.90
51615;DHT22;37695;52.960;6.188;2022-12-08T09:50:47;2.40;99.90
51615;DHT22;37695;52.960;6.188;2022-12-08T09:56:00;2.50;99.90
51615;DHT22;37695;52.960;6.188;2022-12-08T10:01:10;2.60;99.90
51615;DHT22;37695;52.960;6.188;2022-12-08T10:03:36;2.60;99.90
51615;DHT22;37695;52.960;6.188;2022-12-08T10:06:20;2.70;99.90
51615;DHT22;37695;52.960;6.188;2022-12-08T10:09:16;2.80;99.90
51615;DHT22;37695;52.960;6.188;2022-12-08T10:16:48;2.90;99.90
51615;DHT22;37695;52.960;6.188;2022-12-08T10:19:24;2.90;99.90
51615;DHT22;37695;52.960;6.188;2022-12-08T10:21:50;3.00;99.90
51615;DHT22;37695;52.960;6.188;2022-12-08T10:24:33;3.10;99.90
51615;DHT22;37695;52.960;6.188;2022-12-08T10:27:02;3.20;99.90
51615;DHT22;37695;52.960;6.188;2022-12-08T10:29:28;3.30;99.90
51615;DHT22;37695;52.960;6.188;2022-12-08T10:31:56;3.40;99.90
51615;DHT22;37695;52.960;6.188;2022-12-08T10:34:23;3.50;99.90
51615;DHT22;37695;52.960;6.188;2022-12-08T10:36:54;3.60;99.90
51615;DHT22;37695;52.960;6.188;2022-12-08T10:39:37;3.60;99.90
51615;DHT22;37695;52.960;6.188;2022-12-08T10:42:19;3.70;99.90
51615;DHT22;37695;52.960;6.188;2022-12-08T10:44:59;3.70;99.90
51615;DHT22;37695;52.960;6.188;2022-12-08T10:47:27;3.80;99.90
51615;DHT22;37695;52.960;6.188;2022-12-08T10:50:07;3.90;99.90
51615;DHT22;37695;52.960;6.188;2022-12-08T10:52:38;4.00;99.90
51615;DHT22;37695;52.960;6.188;2022-12-08T10:55:14;4.00;99.90
51615;DHT22;37695;52.960;6.188;2022-12-08T10:57:40;4.10;99.90
51615;DHT22;37695;52.960;6.188;2022-12-08T11:00:11;4.20;99.90
51615;DHT22;37695;52.960;6.188;2022-12-08T11:02:58;4.20;99.90
51615;DHT22;37695;52.960;6.188;2022-12-08T11:05:34;4.30;99.90
51615;DHT22;37695;52.960;6.188;2022-12-08T11:08:00;4.30;99.90
51615;DHT22;37695;52.960;6.188;2022-12-08T11:10:36;4.40;99.90
51615;DHT22;37695;52.960;6.188;2022-12-08T11:13:22;4.40;99.90
51615;DHT22;37695;52.960;6.188;2022-12-08T11:15:48;4.40;99.90
51615;DHT22;37695;52.960;6.188;2022-12-08T11:18:38;4.40;99.90
51615;DHT22;37695;52.960;6.188;2022-12-08T11:21:16;4.40;99.90
51615;DHT22;37695;52.960;6.188;2022-12-08T11:23:46;4.40;99.90
51615;DHT22;37695;52.960;6.188;2022-12-08T11:26:32;4.50;99.90
51615;DHT22;37695;52.960;6.188;2022-12-08T11:29:00;4.60;99.90
51615;DHT22;37695;52.960;6.188;2022-12-08T11:31:32;4.70;99.90
51615;DHT22;37695;52.960;6.188;2022-12-08T11:33:59;4.60;99.90
51615;DHT22;37695;52.960;6.188;2022-12-08T11:36:28;4.60;99.90
51615;DHT22;37695;52.960;6.188;2022-12-08T11:38:57;4.50;99.90
51615;DHT22;37695;52.960;6.188;2022-12-08T11:41:28;4.30;99.90
51615;DHT22;37695;52.960;6.188;2022-12-08T11:44:03;4.10;99.90
51615;DHT22;37695;52.960;6.188;2022-12-08T11:46:41;3.90;99.90
51615;DHT22;37695;52.960;6.188;2022-12-08T11:49:12;3.70;99.90
51615;DHT22;37695;52.960;6.188;2022-12-08T11:54:37;3.50;99.90
51615;DHT22;37695;52.960;6.188;2022-12-08T11:57:08;3.40;99.90
51615;DHT22;37695;52.960;6.188;2022-12-08T11:59:39;3.30;99.90
51615;DHT22;37695;52.960;6.188;2022-12-08T12:02:13;3.40;99.90
51615;DHT22;37695;52.960;6.188;2022-12-08T12:05:04;3.40;99.90
51615;DHT22;37695;52.960;6.188;2022-12-08T12:07:51;3.40;99.90
51615;DHT22;37695;52.960;6.188;2022-12-08T12:18:44;3.60;99.90
51615;DHT22;37695;52.960;6.188;2022-12-08T12:21:25;3.60;99.90
51615;DHT22;37695;52.960;6.188;2022-12-08T12:24:05;3.60;99.90
51615;DHT22;37695;52.960;6.188;2022-12-08T12:26:36;3.70;99.90
51615;DHT22;37695;52.960;6.188;2022-12-08T12:29:09;3.70;99.90
51615;DHT22;37695;52.960;6.188;2022-12-08T12:31:40;3.90;99.90
51615;DHT22;37695;52.960;6.188;2022-12-08T12:34:18;3.90;99.90
51615;DHT22;37695;52.960;6.188;2022-12-08T12:36:55;4.00;99.90
51615;DHT22;37695;52.960;6.188;2022-12-08T12:39:28;4.30;99.90
51615;DHT22;37695;52.960;6.188;2022-12-08T12:41:56;4.50;99.90
51615;DHT22;37695;52.960;6.188;2022-12-08T12:44:45;4.70;99.90
51615;DHT22;37695;52.960;6.188;2022-12-08T12:47:12;4.70;99.90
51615;DHT22;37695;52.960;6.188;2022-12-08T12:54:43;4.70;99.90
51615;DHT22;37695;52.960;6.188;2022-12-08T13:05:20;4.80;99.90
51615;DHT22;37695;52.960;6.188;2022-12-08T13:10:26;5.00;99.90
51615;DHT22;37695;52.960;6.188;2022-12-08T13:18:30;5.30;99.90
51615;DHT22;37695;52.960;6.188;2022-12-08T13:26:46;5.20;99.90
51615;DHT22;37695;52.960;6.188;2022-12-08T13:29:25;5.10;99.90
51615;DHT22;37695;52.960;6.188;2022-12-08T13:32:00;5.00;99.90
51615;DHT22;37695;52.960;6.188;2022-12-08T13:34:51;4.90;99.90
51615;DHT22;37695;52.960;6.188;2022-12-08T13:37:45;4.80;99.90
51615;DHT22;37695;52.960;6.188;2022-12-08T13:40:18;4.70;99.90
51615;DHT22;37695;52.960;6.188;2022-12-08T13:43:01;4.70;99.90
51615;DHT22;37695;52.960;6.188;2022-12-08T13:45:29;4.70;99.90
51615;DHT22;37695;52.960;6.188;2022-12-08T13:48:12;4.70;99.90
51615;DHT22;37695;52.960;6.188;2022-12-08T13:53:38;4.60;99.90
51615;DHT22;37695;52.960;6.188;2022-12-08T13:56:05;4.50;99.90
51615;DHT22;37695;52.960;6.188;2022-12-08T13:58:34;4.60;99.90
51615;DHT22;37695;52.960;6.188;2022-12-08T14:01:05;4.40;99.90
51615;DHT22;37695;52.960;6.188;2022-12-08T14:03:54;4.30;99.90
51615;DHT22;37695;52.960;6.188;2022-12-08T14:06:34;4.20;99.90
51615;DHT22;37695;52.960;6.188;2022-12-08T14:09:03;4.20;99.90
51615;DHT22;37695;52.960;6.188;2022-12-08T14:11:30;4.10;99.90
51615;DHT22;37695;52.960;6.188;2022-12-08T14:17:00;3.90;99.90
51615;DHT22;37695;52.960;6.188;2022-12-08T14:19:31;3.90;99.90
51615;DHT22;37695;52.960;6.188;2022-12-08T14:21:58;3.80;99.90
51615;DHT22;37695;52.960;6.188;2022-12-08T14:24:26;3.80;99.90
51615;DHT22;37695;52.960;6.188;2022-12-08T14:26:58;3.80;99.90
51615;DHT22;37695;52.960;6.188;2022-12-08T14:29:45;3.80;99.90
51615;DHT22;37695;52.960;6.188;2022-12-08T14:32:23;3.70;99.90
51615;DHT22;37695;52.960;6.188;2022-12-08T14:34:52;3.70;99.90
51615;DHT22;37695;52.960;6.188;2022-12-08T14:37:18;3.60;99.90
51615;DHT22;37695;52.960;6.188;2022-12-08T14:39:45;3.50;99.90
51615;DHT22;37695;52.960;6.188;2022-12-08T14:42:21;3.50;99.90
51615;DHT22;37695;52.960;6.188;2022-12-08T14:44:47;3.40;99.90
51615;DHT22;37695;52.960;6.188;2022-12-08T14:47:17;3.40;99.90
51615;DHT22;37695;52.960;6.188;2022-12-08T14:49:44;3.40;99.90
51615;DHT22;37695;52.960;6.188;2022-12-08T14:52:12;3.50;99.90
51615;DHT22;37695;52.960;6.188;2022-12-08T14:54:39;3.50;99.90
51615;DHT22;37695;52.960;6.188;2022-12-08T14:57:11;3.50;99.90
51615;DHT22;37695;52.960;6.188;2022-12-08T14:59:38;3.50;99.90
51615;DHT22;37695;52.960;6.188;2022-12-08T15:07:32;3.40;99.90
51615;DHT22;37695;52.960;6.188;2022-12-08T15:15:26;3.20;99.90
51615;DHT22;37695;52.960;6.188;2022-12-08T15:20:44;3.20;99.90
51615;DHT22;37695;52.960;6.188;2022-12-08T15:23:39;3.10;99.90
51615;DHT22;37695;52.960;6.188;2022-12-08T15:26:07;3.10;99.90
51615;DHT22;37695;52.960;6.188;2022-12-08T15:28:33;3.10;99.90
51615;DHT22;37695;52.960;6.188;2022-12-08T15:30:59;2.90;99.90
51615;DHT22;37695;52.960;6.188;2022-12-08T15:33:25;2.80;99.90
51615;DHT22;37695;52.960;6.188;2022-12-08T15:35:51;3.00;99.90
51615;DHT22;37695;52.960;6.188;2022-12-08T15:38:23;2.70;99.90
51615;DHT22;37695;52.960;6.188;2022-12-08T15:40:50;2.60;99.90
51615;DHT22;37695;52.960;6.188;2022-12-08T15:43:16;2.60;99.90
51615;DHT22;37695;52.960;6.188;2022-12-08T15:45:42;2.60;99.90
51615;DHT22;37695;52.960;6.188;2022-12-08T15:48:20;2.50;99.90
51615;DHT22;37695;52.960;6.188;2022-12-08T15:50:47;2.40;99.90
51615;DHT22;37695;52.960;6.188;2022-12-08T15:53:13;2.40;99.90
51615;DHT22;37695;52.960;6.188;2022-12-08T15:55:39;2.50;99.90
51615;DHT22;37695;52.960;6.188;2022-12-08T15:58:05;2.30;99.90
51615;DHT22;37695;52.960;6.188;2022-12-08T16:00:33;2.20;99.90
51615;DHT22;37695;52.960;6.188;2022-12-08T16:03:00;2.20;99.90
51615;DHT22;37695;52.960;6.188;2022-12-08T16:05:28;2.20;99.90
51615;DHT22;37695;52.960;6.188;2022-12-08T16:07:54;2.10;99.90
51615;DHT22;37695;52.960;6.188;2022-12-08T16:10:25;2.10;99.90
51615;DHT22;37695;52.960;6.188;2022-12-08T16:12:51;2.00;99.90
51615;DHT22;37695;52.960;6.188;2022-12-08T16:15:38;2.00;99.90
51615;DHT22;37695;52.960;6.188;2022-12-08T16:18:04;1.90;99.90
51615;DHT22;37695;52.960;6.188;2022-12-08T16:20:31;1.90;99.90
51615;DHT22;37695;52.960;6.188;2022-12-08T16:22:56;2.00;99.90
51615;DHT22;37695;52.960;6.188;2022-12-08T16:25:22;1.80;99.90
51615;DHT22;37695;52.960;6.188;2022-12-08T16:27:50;1.70;99.90
51615;DHT22;37695;52.960;6.188;2022-12-08T16:30:17;1.50;99.90
51615;DHT22;37695;52.960;6.188;2022-12-08T16:32:42;1.50;99.90
51615;DHT22;37695;52.960;6.188;2022-12-08T16:35:10;1.50;99.90
51615;DHT22;37695;52.960;6.188;2022-12-08T16:37:36;1.60;99.90
51615;DHT22;37695;52.960;6.188;2022-12-08T16:40:03;1.60;99.90
51615;DHT22;37695;52.960;6.188;2022-12-08T16:42:30;2.30;99.90
51615;DHT22;37695;52.960;6.188;2022-12-08T16:47:48;1.60;99.90
51615;DHT22;37695;52.960;6.188;2022-12-08T16:50:15;1.70;99.90
51615;DHT22;37695;52.960;6.188;2022-12-08T16:52:41;1.70;99.90
51615;DHT22;37695;52.960;6.188;2022-12-08T16:55:14;1.60;99.90
51615;DHT22;37695;52.960;6.188;2022-12-08T16:57:40;1.60;99.90
51615;DHT22;37695;52.960;6.188;2022-12-08T17:00:09;1.60;99.90
51615;DHT22;37695;52.960;6.188;2022-12-08T17:02:35;1.50;99.90
51615;DHT22;37695;52.960;6.188;2022-12-08T17:05:01;1.60;99.90
51615;DHT22;37695;52.960;6.188;2022-12-08T17:07:26;1.50;99.90
51615;DHT22;37695;52.960;6.188;2022-12-08T17:09:52;1.60;99.90
51615;DHT22;37695;52.960;6.188;2022-12-08T17:12:17;1.50;99.90
51615;DHT22;37695;52.960;6.188;2022-12-08T17:14:43;1.50;99.90
51615;DHT22;37695;52.960;6.188;2022-12-08T17:17:09;1.40;99.90
51615;DHT22;37695;52.960;6.188;2022-12-08T17:19:34;1.40;99.90
51615;DHT22;37695;52.960;6.188;2022-12-08T17:22:00;1.20;99.90
51615;DHT22;37695;52.960;6.188;2022-12-08T17:24:27;1.50;99.90
51615;DHT22;37695;52.960;6.188;2022-12-08T17:26:55;1.60;99.90
51615;DHT22;37695;52.960;6.188;2022-12-08T17:29:21;1.50;99.90
51615;DHT22;37695;52.960;6.188;2022-12-08T17:31:46;1.50;99.90
51615;DHT22;37695;52.960;6.188;2022-12-08T17:34:12;1.50;99.90
51615;DHT22;37695;52.960;6.188;2022-12-08T17:36:37;1.50;99.90